Time;durP1;ratioP1;P1;durP2;ratioP2;P2;SDS_P1;SDS_P2;PMS_P1;PMS_P2;Temp;Humidity;BMP_temperature;BMP_pressure;BME280_temperature;BME280_humidity;BME280_pressure;Samples;Min_cycle;Max_cycle;Signal;HPM_P1;HPM_P2
2022/09/22 00:00:06;;;;;;;1.47;1.33;;;8.10;71.80;;;;;;4991848;28;20197;-59
2022/09/22 00:02:31;;;;;;;1.53;1.40;;;8.10;71.90;;;;;;4977418;28;20201;-59
2022/09/22 00:04:57;;;;;;;2.50;1.67;;;8.00;72.00;;;;;;4999612;28;20435;-60
2022/09/22 00:07:23;;;;;;;1.33;1.13;;;8.00;72.00;;;;;;5009868;28;20212;-59
2022/09/22 00:09:49;;;;;;;1.37;1.20;;;8.00;72.50;;;;;;5014407;28;20279;-59
2022/09/22 00:12:15;;;;;;;1.20;1.10;;;8.00;72.30;;;;;;5017502;28;20526;-59
2022/09/22 00:14:41;;;;;;;4.07;1.40;;;8.00;72.20;;;;;;5008266;28;20215;-59
2022/09/22 00:17:06;;;;;;;1.37;1.27;;;7.90;72.40;;;;;;5036382;28;20204;-59
2022/09/22 00:19:35;;;;;;;1.30;1.20;;;8.00;72.60;;;;;;4976362;28;20199;-59
2022/09/22 00:22:02;;;;;;;1.43;1.33;;;7.90;72.50;;;;;;5014445;28;20192;-59
2022/09/22 00:24:28;;;;;;;2.50;1.30;;;7.80;73.10;;;;;;5017081;28;20442;-59
2022/09/22 00:26:56;;;;;;;1.40;1.23;;;7.80;73.10;;;;;;4980919;28;20506;-59
2022/09/22 00:29:23;;;;;;;2.57;1.30;;;7.80;73.20;;;;;;4981493;28;20444;-59
2022/09/22 00:31:49;;;;;;;2.67;1.50;;;7.80;73.30;;;;;;5007776;28;20460;-59
2022/09/22 00:34:17;;;;;;;4.30;1.30;;;7.70;73.30;;;;;;5018832;28;20495;-59
2022/09/22 00:36:44;;;;;;;2.33;1.40;;;7.80;73.30;;;;;;4977452;28;20200;-59
2022/09/22 00:39:10;;;;;;;1.23;1.13;;;7.80;73.40;;;;;;4979370;28;20436;-59
2022/09/22 00:41:39;;;;;;;3.60;1.23;;;7.80;73.50;;;;;;5007133;28;20494;-59
2022/09/22 00:44:20;;;;;;;1.73;1.00;;;7.70;73.70;;;;;;5016246;28;20438;-59
2022/09/22 00:46:51;;;;;;;1.93;1.03;;;7.80;73.70;;;;;;4990742;28;20497;-59
2022/09/22 00:49:24;;;;;;;0.90;0.90;;;7.70;73.40;;;;;;5026099;28;20435;-59
2022/09/22 00:51:50;;;;;;;1.83;1.30;;;7.50;73.80;;;;;;5024537;28;20420;-59
2022/09/22 00:54:18;;;;;;;3.70;1.30;;;7.60;74.20;;;;;;4996447;28;20444;-59
2022/09/22 00:56:51;;;;;;;1.40;1.10;;;7.60;73.70;;;;;;4993208;28;20223;-59
2022/09/22 00:59:20;;;;;;;2.83;1.23;;;7.60;73.80;;;;;;5020382;28;20435;-59
2022/09/22 01:01:46;;;;;;;2.60;1.37;;;7.60;73.60;;;;;;4975677;28;20487;-59
2022/09/22 01:04:13;;;;;;;1.50;1.30;;;7.60;73.80;;;;;;4988415;28;20438;-59
2022/09/22 01:06:40;;;;;;;2.93;1.27;;;7.50;73.90;;;;;;4976768;28;20311;-59
2022/09/22 01:09:07;;;;;;;1.43;1.33;;;7.50;74.00;;;;;;4984056;28;20439;-59
2022/09/22 01:11:34;;;;;;;1.47;0.93;;;7.50;74.00;;;;;;4987200;28;20432;-59
2022/09/22 01:14:05;;;;;;;2.03;1.30;;;7.50;73.90;;;;;;4978238;28;20491;-59
2022/09/22 01:17:02;;;;;;;1.30;1.20;;;7.50;74.00;;;;;;4978647;28;20436;-59
2022/09/22 01:19:45;;;;;;;2.70;1.20;;;7.40;74.50;;;;;;5019961;28;20479;-59
2022/09/22 01:22:23;;;;;;;2.00;1.20;;;7.40;74.20;;;;;;5022924;28;20427;-59
2022/09/22 01:25:12;;;;;;;1.53;1.20;;;7.50;74.20;;;;;;5012309;28;20519;-59
2022/09/22 01:27:50;;;;;;;4.00;1.10;;;7.40;74.30;;;;;;4987697;28;20542;-59
2022/09/22 01:30:24;;;;;;;2.03;1.20;;;7.40;74.10;;;;;;4981186;28;20440;-59
2022/09/22 01:33:10;;;;;;;1.67;1.37;;;7.30;74.20;;;;;;4978142;28;20419;-60
2022/09/22 01:36:01;;;;;;;2.23;1.60;;;7.30;74.70;;;;;;4997528;28;20473;-59
2022/09/22 01:39:09;;;;;;;3.23;1.20;;;7.30;74.40;;;;;;4995883;28;20442;-59
2022/09/22 01:41:41;;;;;;;2.60;1.47;;;7.30;74.70;;;;;;4994366;28;20462;-59
2022/09/22 01:44:21;;;;;;;2.87;1.13;;;7.20;75.00;;;;;;4991769;28;20439;-59
2022/09/22 01:46:56;;;;;;;3.53;1.50;;;7.20;75.10;;;;;;4981104;28;20570;-59
2022/09/22 01:49:27;;;;;;;2.53;1.20;;;7.20;75.20;;;;;;4996079;28;20431;-59
2022/09/22 01:51:59;;;;;;;2.60;1.47;;;7.20;75.30;;;;;;5015221;28;21017;-59
2022/09/22 01:54:38;;;;;;;1.30;1.20;;;7.20;75.50;;;;;;5026080;28;20467;-59
2022/09/22 01:57:36;;;;;;;1.20;1.07;;;7.10;75.70;;;;;;5015533;28;20440;-59
2022/09/22 02:00:07;;;;;;;2.00;1.40;;;7.10;75.60;;;;;;4984879;28;20430;-59
2022/09/22 02:02:55;;;;;;;3.33;1.30;;;7.20;75.20;;;;;;5016052;28;20431;-59
2022/09/22 02:05:37;;;;;;;1.40;1.30;;;7.20;75.40;;;;;;4999392;28;20452;-59
2022/09/22 02:08:08;;;;;;;1.93;1.33;;;7.10;75.50;;;;;;5023365;28;20494;-59
2022/09/22 02:10:39;;;;;;;1.17;1.07;;;7.10;75.60;;;;;;4986313;28;20436;-59
2022/09/22 02:13:05;;;;;;;1.60;1.23;;;7.10;75.60;;;;;;5026004;28;20508;-59
2022/09/22 02:18:21;;;;;;;1.70;1.40;;;7.10;75.30;;;;;;5015228;28;20195;-59
2022/09/22 02:20:49;;;;;;;1.50;1.40;;;7.10;75.20;;;;;;4991703;28;20476;-59
2022/09/22 02:23:15;;;;;;;1.30;1.17;;;7.10;75.30;;;;;;5021373;28;20452;-59
2022/09/22 02:25:43;;;;;;;1.50;1.40;;;7.10;75.50;;;;;;4988547;28;20435;-59
2022/09/22 02:28:12;;;;;;;1.87;1.60;;;7.00;75.70;;;;;;5008980;28;20523;-59
2022/09/22 02:30:40;;;;;;;2.80;1.37;;;7.00;75.60;;;;;;4977803;28;20440;-59
2022/09/22 02:33:07;;;;;;;2.80;1.47;;;7.10;75.60;;;;;;4998701;28;20429;-59
2022/09/22 02:35:36;;;;;;;2.67;1.13;;;7.10;75.70;;;;;;5008098;28;20448;-59
2022/09/22 02:38:27;;;;;;;2.93;1.40;;;7.00;75.70;;;;;;4981880;28;20435;-59
2022/09/22 02:41:16;;;;;;;1.40;1.30;;;6.70;76.90;;;;;;5012808;28;20440;-59
2022/09/22 02:44:00;;;;;;;3.80;1.60;;;6.90;76.40;;;;;;4987893;28;20463;-59
2022/09/22 02:46:48;;;;;;;2.10;1.40;;;7.00;76.00;;;;;;4994460;28;20431;-59
2022/09/22 02:49:17;;;;;;;1.33;1.23;;;7.00;76.00;;;;;;4985230;28;20470;-59
2022/09/22 02:51:45;;;;;;;2.37;1.57;;;7.10;75.90;;;;;;5008219;28;20444;-59
2022/09/22 02:54:13;;;;;;;1.90;1.30;;;7.10;75.90;;;;;;4997316;28;20447;-59
2022/09/22 02:56:40;;;;;;;1.83;1.40;;;7.10;75.80;;;;;;4998558;28;20444;-59
2022/09/22 02:59:08;;;;;;;1.90;1.30;;;7.10;75.60;;;;;;5012541;28;20464;-59
2022/09/22 03:01:34;;;;;;;3.50;1.47;;;7.00;75.50;;;;;;4989974;28;20458;-59
2022/09/22 03:04:00;;;;;;;2.37;1.33;;;7.00;75.80;;;;;;5001143;28;20436;-59
2022/09/22 03:06:26;;;;;;;1.40;1.30;;;7.00;75.70;;;;;;5001424;28;20514;-60
2022/09/22 03:08:51;;;;;;;2.90;1.40;;;7.00;75.50;;;;;;4989275;28;20192;-59
2022/09/22 03:11:17;;;;;;;1.93;1.57;;;7.00;75.50;;;;;;4985958;28;20295;-60
2022/09/22 03:13:42;;;;;;;1.70;1.60;;;7.10;75.50;;;;;;4992989;28;20271;-59
2022/09/22 03:16:08;;;;;;;1.67;1.40;;;7.00;75.70;;;;;;5002047;28;20207;-59
2022/09/22 03:18:34;;;;;;;1.83;1.53;;;7.00;75.40;;;;;;4982260;28;20197;-59
2022/09/22 03:21:00;;;;;;;1.73;1.30;;;6.90;75.90;;;;;;5011430;28;20195;-59
2022/09/22 03:23:26;;;;;;;1.60;1.47;;;6.80;75.80;;;;;;4987366;28;20197;-60
2022/09/22 03:25:51;;;;;;;1.37;1.23;;;6.80;76.00;;;;;;4968783;28;20351;-59
2022/09/22 03:28:17;;;;;;;1.97;1.40;;;6.80;76.20;;;;;;5022349;28;20224;-59
2022/09/22 03:30:43;;;;;;;3.83;1.27;;;6.80;75.90;;;;;;4996779;28;20197;-59
2022/09/22 03:33:08;;;;;;;4.47;1.33;;;6.80;76.20;;;;;;4990580;28;20211;-59
2022/09/22 03:35:34;;;;;;;2.30;1.50;;;6.80;75.90;;;;;;4992509;28;20239;-59
2022/09/22 03:38:00;;;;;;;1.80;1.43;;;6.90;75.90;;;;;;5020691;28;20271;-59
2022/09/22 03:40:26;;;;;;;2.23;1.73;;;6.90;76.00;;;;;;5004413;28;20279;-59
2022/09/22 03:42:51;;;;;;;1.83;1.47;;;6.90;76.00;;;;;;4992874;28;20193;-59
2022/09/22 03:45:17;;;;;;;1.43;1.33;;;6.80;75.90;;;;;;5000968;28;20199;-59
2022/09/22 03:47:43;;;;;;;1.30;1.20;;;6.90;76.10;;;;;;4989618;28;20223;-59
2022/09/22 03:50:09;;;;;;;2.13;1.53;;;6.90;75.80;;;;;;5008279;28;20195;-59
2022/09/22 03:52:35;;;;;;;2.27;1.50;;;6.80;76.20;;;;;;4986582;28;20194;-59
2022/09/22 03:55:01;;;;;;;3.13;1.73;;;6.80;76.20;;;;;;5015184;28;20425;-59
2022/09/22 03:57:27;;;;;;;4.27;1.53;;;6.80;76.00;;;;;;5000387;28;20193;-59
2022/09/22 03:59:53;;;;;;;1.50;1.30;;;6.80;76.10;;;;;;4994501;28;20479;-59
2022/09/22 04:02:19;;;;;;;3.80;1.60;;;6.80;76.30;;;;;;5005922;28;20437;-59
2022/09/22 04:04:44;;;;;;;2.30;1.50;;;6.80;76.20;;;;;;4994547;28;20201;-60
2022/09/22 04:07:10;;;;;;;1.97;1.60;;;6.80;76.60;;;;;;4993685;28;20272;-59
2022/09/22 04:09:36;;;;;;;2.33;1.60;;;6.80;76.50;;;;;;5014830;28;20197;-60
2022/09/22 04:12:02;;;;;;;2.77;1.20;;;6.80;76.90;;;;;;5011872;28;20192;-59
2022/09/22 04:14:28;;;;;;;1.30;1.20;;;6.80;76.70;;;;;;5035238;28;20248;-59
2022/09/22 04:16:53;;;;;;;3.97;1.80;;;6.80;76.70;;;;;;5005243;28;20439;-59
2022/09/22 04:19:19;;;;;;;1.67;1.40;;;6.80;76.60;;;;;;4984680;28;20193;-59
2022/09/22 04:21:45;;;;;;;2.33;1.50;;;6.80;76.90;;;;;;4997172;28;20192;-59
2022/09/22 04:24:10;;;;;;;2.60;1.53;;;6.80;77.20;;;;;;5023041;28;20219;-59
2022/09/22 04:26:37;;;;;;;4.13;1.50;;;6.90;76.70;;;;;;5012505;28;20221;-59
2022/09/22 04:29:03;;;;;;;2.87;1.93;;;6.80;77.20;;;;;;4990688;28;20199;-59
2022/09/22 04:31:29;;;;;;;2.43;1.70;;;6.80;77.10;;;;;;5006803;28;20440;-59
2022/09/22 04:33:55;;;;;;;1.73;1.37;;;6.80;77.00;;;;;;4982345;28;20237;-59
2022/09/22 04:36:20;;;;;;;1.87;1.67;;;6.90;76.80;;;;;;5013717;28;20656;-59
2022/09/22 04:38:46;;;;;;;2.23;1.60;;;7.00;76.50;;;;;;4967444;28;20189;-59
2022/09/22 04:41:12;;;;;;;4.23;1.63;;;6.90;76.40;;;;;;5016985;28;20256;-58
2022/09/22 04:43:38;;;;;;;1.67;1.37;;;7.00;76.50;;;;;;5016474;28;20520;-58
2022/09/22 04:46:03;;;;;;;1.47;1.37;;;7.10;76.40;;;;;;5012998;28;20193;-58
2022/09/22 04:48:29;;;;;;;4.70;1.53;;;7.10;76.30;;;;;;5000104;28;20220;-58
2022/09/22 04:50:55;;;;;;;4.00;1.90;;;7.10;76.40;;;;;;5014560;28;20189;-58
2022/09/22 04:53:21;;;;;;;1.87;1.40;;;7.10;76.30;;;;;;5031415;28;20189;-59
2022/09/22 04:55:49;;;;;;;1.73;1.53;;;7.10;76.40;;;;;;5029117;28;20282;-59
2022/09/22 04:58:15;;;;;;;1.93;1.57;;;7.10;76.20;;;;;;5010996;28;20224;-59
2022/09/22 05:00:40;;;;;;;3.07;1.67;;;7.10;76.10;;;;;;5004951;28;20470;-60
2022/09/22 05:03:08;;;;;;;1.90;1.53;;;7.10;75.90;;;;;;5004977;28;20282;-59
2022/09/22 05:05:34;;;;;;;1.37;1.27;;;7.10;75.90;;;;;;4993705;28;20304;-59
2022/09/22 05:08:00;;;;;;;1.83;1.50;;;7.10;75.80;;;;;;5022435;28;20475;-59
2022/09/22 05:10:29;;;;;;;1.90;1.40;;;7.20;75.80;;;;;;5000301;28;20446;-59
2022/09/22 05:12:55;;;;;;;3.90;1.67;;;7.20;75.60;;;;;;5007917;28;20439;-61
2022/09/22 05:15:24;;;;;;;2.57;1.70;;;7.30;75.70;;;;;;4999296;28;20443;-59
2022/09/22 05:17:51;;;;;;;5.23;2.17;;;7.20;75.90;;;;;;4979581;28;20201;-58
2022/09/22 05:20:18;;;;;;;3.47;1.70;;;7.10;75.80;;;;;;5016160;28;20431;-58
2022/09/22 05:22:46;;;;;;;3.70;1.80;;;7.20;76.10;;;;;;5010424;28;20515;-59
2022/09/22 05:25:13;;;;;;;2.20;1.77;;;7.20;76.50;;;;;;5033906;28;20460;-58
2022/09/22 05:27:44;;;;;;;5.93;2.10;;;7.20;76.40;;;;;;5016411;28;20518;-58
2022/09/22 05:30:10;;;;;;;5.80;1.60;;;7.30;76.50;;;;;;4997102;28;20476;-59
2022/09/22 05:32:36;;;;;;;1.80;1.70;;;7.20;76.40;;;;;;5000781;28;20420;-58
2022/09/22 05:35:01;;;;;;;4.17;1.63;;;7.30;76.20;;;;;;4994446;28;20506;-59
2022/09/22 05:37:27;;;;;;;3.47;1.80;;;7.20;76.70;;;;;;4981652;28;20189;-58
2022/09/22 05:39:53;;;;;;;5.10;1.67;;;7.20;76.40;;;;;;4986605;28;20197;-59
2022/09/22 05:42:19;;;;;;;3.23;1.90;;;7.10;76.90;;;;;;4998247;28;20197;-59
2022/09/22 05:44:44;;;;;;;2.20;1.40;;;7.20;77.00;;;;;;5003261;28;20227;-58
2022/09/22 05:47:10;;;;;;;4.03;1.77;;;7.20;77.20;;;;;;4992592;28;20236;-58
2022/09/22 05:49:35;;;;;;;1.90;1.47;;;7.10;77.30;;;;;;5005377;28;20184;-59
2022/09/22 05:52:01;;;;;;;2.00;1.63;;;7.20;77.40;;;;;;5022081;28;20193;-59
2022/09/22 05:54:27;;;;;;;1.67;1.57;;;7.20;77.20;;;;;;5004615;28;20203;-58
2022/09/22 05:56:54;;;;;;;2.27;1.40;;;7.30;77.10;;;;;;4985468;28;20284;-58
2022/09/22 05:59:19;;;;;;;2.53;1.70;;;7.30;77.20;;;;;;4992955;28;20507;-58
2022/09/22 06:01:45;;;;;;;4.07;1.80;;;7.30;77.30;;;;;;4997512;28;20462;-59
2022/09/22 06:04:11;;;;;;;3.00;1.60;;;7.30;77.40;;;;;;5009546;28;20227;-58
2022/09/22 06:06:36;;;;;;;2.23;1.83;;;7.30;77.70;;;;;;5006179;28;20215;-58
2022/09/22 06:09:02;;;;;;;4.17;1.83;;;7.40;77.40;;;;;;5019852;28;20284;-59
2022/09/22 06:11:28;;;;;;;1.90;1.70;;;7.40;77.10;;;;;;5008878;28;20279;-58
2022/09/22 06:13:53;;;;;;;1.67;1.57;;;7.50;76.60;;;;;;4999239;28;20193;-58
2022/09/22 06:16:19;;;;;;;1.70;1.50;;;7.60;76.60;;;;;;4981060;28;20216;-58
2022/09/22 06:18:46;;;;;;;3.10;1.83;;;7.60;76.90;;;;;;5004199;28;20203;-58
2022/09/22 06:21:13;;;;;;;3.00;1.80;;;7.60;76.50;;;;;;4995308;28;20463;-58
2022/09/22 06:23:41;;;;;;;2.50;1.63;;;7.70;76.20;;;;;;4988082;28;20432;-58
2022/09/22 06:26:07;;;;;;;3.30;2.20;;;7.70;76.00;;;;;;5012157;28;20478;-59
2022/09/22 06:28:33;;;;;;;2.13;1.70;;;7.80;75.70;;;;;;5020202;28;20534;-59
2022/09/22 06:30:59;;;;;;;3.20;2.23;;;7.80;75.60;;;;;;5000838;28;20197;-58
2022/09/22 06:33:26;;;;;;;2.40;1.67;;;7.90;75.90;;;;;;5009888;28;20244;-58
2022/09/22 06:35:53;;;;;;;2.17;1.77;;;7.90;75.40;;;;;;5031477;28;20448;-59
2022/09/22 06:38:19;;;;;;;2.23;1.80;;;7.90;75.40;;;;;;4980399;28;20494;-58
2022/09/22 06:40:44;;;;;;;12.33;2.20;;;8.00;75.30;;;;;;4986666;28;20530;-59
2022/09/22 06:43:21;;;;;;;5.47;2.33;;;8.00;75.40;;;;;;5003317;28;20652;-59
2022/09/22 06:45:51;;;;;;;6.63;2.27;;;8.00;75.30;;;;;;4975174;28;20193;-58
2022/09/22 06:48:17;;;;;;;3.60;1.97;;;8.10;75.00;;;;;;4974283;28;20472;-59
2022/09/22 06:50:48;;;;;;;2.77;1.67;;;8.10;75.00;;;;;;4975129;28;20428;-59
2022/09/22 06:53:13;;;;;;;2.40;2.00;;;8.10;75.20;;;;;;5011567;28;20439;-58
2022/09/22 06:55:42;;;;;;;2.83;2.10;;;8.20;75.20;;;;;;5011349;28;20462;-58
2022/09/22 06:58:09;;;;;;;4.47;2.00;;;8.20;75.30;;;;;;4992038;28;20272;-58
2022/09/22 07:00:35;;;;;;;2.90;1.97;;;8.20;75.30;;;;;;5015475;28;20443;-58
2022/09/22 07:03:21;;;;;;;3.43;2.07;;;8.20;75.10;;;;;;4998392;28;20582;-58
2022/09/22 07:05:56;;;;;;;6.10;2.00;;;8.30;75.00;;;;;;4994643;28;20474;-58
2022/09/22 07:08:23;;;;;;;2.73;1.90;;;8.30;74.80;;;;;;5024401;28;20466;-58
2022/09/22 07:10:57;;;;;;;4.80;1.67;;;8.30;74.90;;;;;;5001517;28;20531;-58
2022/09/22 07:13:24;;;;;;;1.73;1.63;;;8.40;75.00;;;;;;4983054;28;20450;-58
2022/09/22 07:15:50;;;;;;;2.97;2.03;;;8.40;75.00;;;;;;4985721;28;20539;-58
2022/09/22 07:18:16;;;;;;;2.60;1.87;;;8.50;75.10;;;;;;4982825;28;20442;-58
2022/09/22 07:20:44;;;;;;;2.90;2.27;;;8.50;74.60;;;;;;4990620;28;20451;-58
2022/09/22 07:23:17;;;;;;;3.07;2.20;;;8.60;73.90;;;;;;4983917;28;20224;-58
2022/09/22 07:25:51;;;;;;;4.90;2.57;;;8.70;74.20;;;;;;5012102;28;20493;-58
2022/09/22 07:28:17;;;;;;;2.47;2.10;;;8.70;74.00;;;;;;5013955;28;20475;-59
2022/09/22 07:30:42;;;;;;;3.13;2.00;;;8.80;74.00;;;;;;5023393;28;20435;-58
2022/09/22 07:33:08;;;;;;;6.03;2.50;;;8.80;74.40;;;;;;4999741;28;20204;-58
2022/09/22 07:35:36;;;;;;;4.27;2.60;;;8.80;73.90;;;;;;5012677;28;20268;-58
2022/09/22 07:38:03;;;;;;;4.73;2.67;;;8.90;73.60;;;;;;5028122;28;20189;-58
2022/09/22 07:40:28;;;;;;;3.10;2.00;;;8.90;73.60;;;;;;5007301;28;20455;-58
2022/09/22 07:42:54;;;;;;;3.90;1.87;;;9.00;72.80;;;;;;4989405;28;20464;-59
2022/09/22 07:45:20;;;;;;;3.97;1.83;;;9.00;73.00;;;;;;5012674;28;20204;-59
2022/09/22 07:50:30;;;;;;;2.17;1.77;;;9.10;73.00;;;;;;5023997;28;20486;-59
2022/09/22 07:52:56;;;;;;;3.17;1.90;;;9.20;72.70;;;;;;4994587;28;20885;-59
2022/09/22 07:55:23;;;;;;;2.20;1.90;;;9.30;72.80;;;;;;5003447;28;20196;-59
2022/09/22 07:57:57;;;;;;;4.43;2.00;;;9.30;72.20;;;;;;5009254;28;20199;-59
2022/09/22 08:00:24;;;;;;;3.37;2.00;;;9.40;72.30;;;;;;5030862;28;20287;-59
2022/09/22 08:02:54;;;;;;;2.63;1.80;;;9.50;72.30;;;;;;5017467;28;20439;-58
2022/09/22 08:05:25;;;;;;;2.17;1.67;;;9.60;69.70;;;;;;4989628;28;20202;-58
2022/09/22 08:07:51;;;;;;;1.70;1.60;;;9.70;69.00;;;;;;4988487;28;20463;-59
2022/09/22 08:10:17;;;;;;;3.37;1.97;;;9.80;69.30;;;;;;5022652;28;20431;-58
2022/09/22 08:12:43;;;;;;;2.23;1.57;;;10.00;68.20;;;;;;5006522;28;20244;-59
2022/09/22 08:15:11;;;;;;;3.20;2.00;;;10.10;68.30;;;;;;5023088;28;20185;-59
2022/09/22 08:17:38;;;;;;;3.73;1.90;;;10.10;69.40;;;;;;4988175;28;20283;-59
2022/09/22 08:20:05;;;;;;;2.73;1.60;;;10.20;70.20;;;;;;4988047;28;20479;-59
2022/09/22 08:22:32;;;;;;;2.40;1.50;;;10.20;69.30;;;;;;5002474;28;20437;-58
2022/09/22 08:24:57;;;;;;;3.10;1.90;;;10.20;69.40;;;;;;5008942;28;20246;-59
2022/09/22 08:27:24;;;;;;;1.60;1.50;;;10.30;67.40;;;;;;5000646;28;20204;-59
2022/09/22 08:29:50;;;;;;;1.87;1.30;;;10.40;66.40;;;;;;4978454;28;20189;-59
2022/09/22 08:32:17;;;;;;;1.27;1.13;;;10.50;66.80;;;;;;4987571;28;20195;-59
2022/09/22 08:34:43;;;;;;;3.43;1.30;;;10.60;64.70;;;;;;4993964;28;20264;-59
2022/09/22 08:37:10;;;;;;;1.40;1.07;;;10.70;66.50;;;;;;4981564;28;20192;-59
2022/09/22 08:39:36;;;;;;;1.00;0.90;;;10.70;66.00;;;;;;4993394;28;20265;-59
2022/09/22 08:42:17;;;;;;;1.60;1.20;;;10.70;64.60;;;;;;5009437;28;20679;-59
2022/09/22 08:45:01;;;;;;;1.90;1.10;;;11.00;61.00;;;;;;4976374;28;20192;-59
2022/09/22 08:53:46;;;;;;;2.70;1.20;;;11.30;62.30;;;;;;4984378;28;20437;-59
2022/09/22 08:56:29;;;;;;;2.80;1.10;;;11.20;63.30;;;;;;4987090;28;20185;-58
2022/09/22 08:59:07;;;;;;;2.30;1.43;;;11.20;63.90;;;;;;5011351;28;20279;-59
2022/09/22 09:01:50;;;;;;;1.20;1.00;;;11.30;63.10;;;;;;5011128;28;20191;-59
2022/09/22 09:04:35;;;;;;;1.77;1.20;;;11.30;62.70;;;;;;4977598;28;20185;-59
2022/09/22 09:07:14;;;;;;;1.60;1.03;;;11.70;60.00;;;;;;4980527;28;20204;-59
2022/09/22 09:09:47;;;;;;;2.63;1.30;;;11.80;60.80;;;;;;5017866;28;20219;-59
2022/09/22 09:12:27;;;;;;;1.40;1.07;;;11.80;60.90;;;;;;5015173;28;20205;-59
2022/09/22 09:14:59;;;;;;;2.87;1.40;;;11.80;61.50;;;;;;5016958;28;20234;-59
2022/09/22 09:17:36;;;;;;;2.27;1.27;;;11.80;61.80;;;;;;4990688;28;20279;-59
2022/09/22 09:20:18;;;;;;;1.30;1.20;;;12.20;59.10;;;;;;4982696;28;20200;-59
2022/09/22 09:22:57;;;;;;;2.10;1.37;;;12.20;61.10;;;;;;5004653;28;20201;-59
2022/09/22 09:25:42;;;;;;;1.87;1.50;;;12.20;59.40;;;;;;4985727;28;20202;-59
2022/09/22 09:28:32;;;;;;;3.07;1.20;;;12.30;59.60;;;;;;5008580;28;20209;-59
2022/09/22 09:31:53;;;;;;;1.87;1.33;;;12.60;60.00;;;;;;4985161;28;20177;-59
2022/09/22 09:34:27;;;;;;;4.90;1.93;;;12.70;60.40;;;;;;4983263;28;20282;-59
2022/09/22 09:37:12;;;;;;;1.77;1.57;;;13.00;58.70;;;;;;4993279;28;20192;-59
2022/09/22 09:39:40;;;;;;;4.13;1.60;;;13.20;60.00;;;;;;5013528;28;20192;-59
2022/09/22 09:42:27;;;;;;;3.73;2.00;;;13.40;58.90;;;;;;5011737;28;20200;-59
2022/09/22 09:44:54;;;;;;;3.37;1.60;;;13.60;58.10;;;;;;5015772;28;20203;-59
2022/09/22 09:47:43;;;;;;;2.20;1.60;;;13.70;60.20;;;;;;4984591;28;20217;-59
2022/09/22 09:50:12;;;;;;;2.70;1.80;;;13.80;60.00;;;;;;4992886;28;20194;-59
2022/09/22 09:52:38;;;;;;;1.93;1.30;;;14.00;56.70;;;;;;4981863;28;20189;-59
2022/09/22 09:55:20;;;;;;;2.87;1.60;;;14.20;56.00;;;;;;4982926;28;20252;-59
2022/09/22 09:58:00;;;;;;;2.50;1.63;;;14.20;53.70;;;;;;5016589;28;20185;-59
2022/09/22 10:00:32;;;;;;;1.50;1.23;;;14.30;53.40;;;;;;4988832;28;20247;-59
2022/09/22 10:03:41;;;;;;;2.17;1.50;;;14.30;55.40;;;;;;5032227;28;20642;-59
2022/09/22 10:06:09;;;;;;;1.70;1.33;;;14.40;56.10;;;;;;4996166;28;20283;-59
2022/09/22 10:08:49;;;;;;;1.33;1.23;;;14.50;56.50;;;;;;4992185;28;20216;-59
2022/09/22 10:11:15;;;;;;;1.57;1.27;;;14.60;55.60;;;;;;4988268;28;20200;-59
2022/09/22 10:13:42;;;;;;;1.50;1.33;;;14.60;56.80;;;;;;4997033;28;20193;-59
2022/09/22 10:16:27;;;;;;;3.33;1.30;;;14.60;57.70;;;;;;4985894;28;20202;-59
2022/09/22 10:19:02;;;;;;;2.33;1.53;;;14.60;57.80;;;;;;5023390;28;20192;-59
2022/09/22 10:21:27;;;;;;;2.57;1.47;;;14.60;56.80;;;;;;4985869;28;20181;-59
2022/09/22 10:23:55;;;;;;;1.53;1.10;;;14.60;57.30;;;;;;4985704;28;20196;-59
2022/09/22 10:26:31;;;;;;;1.47;1.30;;;14.60;56.00;;;;;;5005994;28;20207;-59
2022/09/22 10:29:16;;;;;;;2.33;1.00;;;14.60;54.60;;;;;;4992005;28;20312;-59
2022/09/22 10:32:11;;;;;;;1.97;1.40;;;14.60;56.60;;;;;;4976188;28;20189;-59
2022/09/22 10:34:38;;;;;;;1.60;1.07;;;14.60;56.40;;;;;;5010421;28;20228;-59
2022/09/22 10:37:10;;;;;;;1.23;1.00;;;14.60;55.90;;;;;;4989535;28;20192;-59
2022/09/22 10:39:43;;;;;;;1.00;1.00;;;14.60;55.40;;;;;;5022795;28;20211;-59
2022/09/22 10:42:39;;;;;;;3.33;1.20;;;14.70;57.20;;;;;;4976304;28;20185;-59
2022/09/22 10:45:07;;;;;;;1.97;1.47;;;14.70;56.30;;;;;;5013437;28;20206;-59
2022/09/22 10:47:54;;;;;;;1.40;1.30;;;14.70;55.80;;;;;;4987351;28;20211;-59
2022/09/22 10:51:06;;;;;;;0.90;0.90;;;14.80;56.70;;;;;;4992982;28;20240;-59
2022/09/22 10:53:41;;;;;;;1.97;1.37;;;14.80;55.80;;;;;;5015353;28;20184;-59
2022/09/22 10:56:36;;;;;;;0.80;0.80;;;14.80;58.70;;;;;;5009257;28;20189;-59
2022/09/22 10:59:23;;;;;;;1.07;1.00;;;14.80;57.60;;;;;;4975747;28;20194;-59
2022/09/22 11:02:13;;;;;;;1.17;1.03;;;14.90;58.20;;;;;;5012648;28;20206;-59
2022/09/22 11:05:01;;;;;;;1.30;1.20;;;14.90;59.00;;;;;;4979912;28;20185;-58
2022/09/22 11:13:52;;;;;;;1.30;1.17;;;14.90;60.00;;;;;;4980954;28;20221;-59
2022/09/22 11:16:48;;;;;;;1.27;1.17;;;14.90;61.10;;;;;;4976323;28;20185;-59
2022/09/22 11:19:23;;;;;;;1.10;0.97;;;15.00;60.50;;;;;;5018727;28;20240;-59
2022/09/22 11:22:10;;;;;;;1.40;0.90;;;14.90;59.90;;;;;;5009002;28;20196;-59
2022/09/22 11:24:39;;;;;;;1.17;1.07;;;15.00;60.90;;;;;;5013378;28;20216;-59
2022/09/22 11:27:14;;;;;;;2.13;1.00;;;15.00;60.60;;;;;;5024358;28;20237;-59
2022/09/22 11:29:51;;;;;;;1.63;1.13;;;15.10;60.30;;;;;;4988583;28;20269;-60
2022/09/22 11:32:23;;;;;;;2.17;1.03;;;15.10;58.30;;;;;;5019930;28;20190;-59
2022/09/22 11:35:19;;;;;;;1.10;1.00;;;15.20;58.50;;;;;;5021348;28;20236;-59
2022/09/22 11:38:13;;;;;;;1.40;1.23;;;15.40;59.30;;;;;;4985740;28;20200;-59
2022/09/22 11:40:57;;;;;;;0.87;0.77;;;15.50;55.00;;;;;;5012366;28;20188;-59
2022/09/22 11:43:54;;;;;;;1.33;1.20;;;15.80;53.80;;;;;;5011956;28;20189;-59
2022/09/22 11:46:28;;;;;;;1.47;1.10;;;15.90;52.90;;;;;;4982750;28;20178;-60
2022/09/22 11:49:05;;;;;;;1.30;1.20;;;16.00;53.10;;;;;;5019481;28;20243;-59
2022/09/22 11:51:50;;;;;;;1.03;0.93;;;16.20;52.60;;;;;;5009338;28;20220;-59
2022/09/22 11:54:53;;;;;;;1.40;1.30;;;16.40;50.30;;;;;;5013937;28;20200;-59
2022/09/22 11:57:23;;;;;;;1.30;1.20;;;16.70;49.50;;;;;;5021946;28;20184;-59
2022/09/22 12:00:10;;;;;;;1.17;1.07;;;16.90;51.90;;;;;;5011695;28;20190;-59
2022/09/22 12:02:59;;;;;;;1.23;1.00;;;17.30;53.10;;;;;;5019846;28;20188;-59
2022/09/22 12:05:37;;;;;;;1.83;1.03;;;17.60;51.40;;;;;;4990405;28;20246;-59
2022/09/22 12:08:09;;;;;;;1.30;1.20;;;17.80;50.70;;;;;;5014867;28;20208;-59
2022/09/22 12:10:43;;;;;;;1.10;1.00;;;17.80;46.20;;;;;;4984136;28;20184;-59
2022/09/22 12:13:26;;;;;;;1.87;1.10;;;17.70;46.30;;;;;;5011712;28;20193;-60
2022/09/22 12:16:21;;;;;;;1.50;1.20;;;17.60;45.40;;;;;;4990916;28;20195;-59
2022/09/22 12:19:29;;;;;;;1.77;1.30;;;17.40;47.40;;;;;;4984062;28;20205;-59
2022/09/22 12:22:04;;;;;;;1.23;1.00;;;17.30;48.00;;;;;;4980762;28;20193;-59
2022/09/22 12:24:30;;;;;;;1.07;1.07;;;17.30;49.20;;;;;;5014895;28;20197;-59
2022/09/22 12:26:56;;;;;;;1.20;1.10;;;17.50;50.80;;;;;;4991371;28;20217;-59
2022/09/22 12:29:29;;;;;;;1.23;1.13;;;18.00;47.10;;;;;;5011962;28;20181;-59
2022/09/22 12:31:57;;;;;;;3.50;1.13;;;18.80;45.00;;;;;;4999777;28;20201;-59
2022/09/22 12:34:43;;;;;;;1.63;1.20;;;18.80;44.30;;;;;;4998383;28;20291;-59
2022/09/22 12:37:34;;;;;;;1.80;1.17;;;19.00;44.60;;;;;;4976969;28;20915;-59
2022/09/22 12:40:29;;;;;;;1.60;1.07;;;19.30;45.80;;;;;;4985480;28;20204;-59
2022/09/22 12:42:58;;;;;;;1.43;1.10;;;19.80;44.00;;;;;;4989688;28;20197;-59
2022/09/22 12:45:40;;;;;;;1.43;1.13;;;19.80;42.90;;;;;;5001338;28;20192;-59
2022/09/22 12:48:12;;;;;;;1.30;1.00;;;19.30;43.50;;;;;;4989726;28;20205;-59
2022/09/22 12:50:41;;;;;;;1.83;1.10;;;18.80;42.70;;;;;;5022972;28;20196;-60
2022/09/22 12:53:21;;;;;;;1.30;1.20;;;18.70;43.00;;;;;;5017659;28;20185;-59
2022/09/22 12:55:52;;;;;;;3.50;1.23;;;18.50;43.80;;;;;;5013117;28;20275;-60
2022/09/22 12:58:18;;;;;;;1.33;1.20;;;18.40;45.10;;;;;;4997802;28;20242;-61
2022/09/22 13:00:44;;;;;;;2.90;1.10;;;18.50;44.00;;;;;;5010365;28;20224;-60
2022/09/22 13:03:35;;;;;;;1.73;1.10;;;18.50;46.00;;;;;;4993230;28;20293;-59
2022/09/22 13:06:22;;;;;;;1.30;1.03;;;18.30;45.00;;;;;;4992157;28;20260;-60
2022/09/22 13:08:48;;;;;;;1.73;1.07;;;18.30;45.50;;;;;;4981363;28;20220;-59
2022/09/22 13:11:14;;;;;;;2.10;1.20;;;18.70;44.80;;;;;;5027215;28;20196;-59
2022/09/22 13:13:42;;;;;;;2.20;1.10;;;18.90;43.50;;;;;;5010809;28;20203;-59
2022/09/22 13:16:14;;;;;;;1.33;0.90;;;18.80;45.10;;;;;;5010503;28;20216;-59
2022/09/22 13:18:45;;;;;;;1.07;1.03;;;18.60;44.00;;;;;;5020324;28;20243;-59
2022/09/22 13:21:11;;;;;;;1.17;0.93;;;18.40;43.70;;;;;;4983297;28;20184;-59
2022/09/22 13:23:56;;;;;;;3.33;1.83;;;18.10;44.70;;;;;;5023177;28;20198;-59
2022/09/22 13:26:33;;;;;;;1.13;1.03;;;17.90;46.40;;;;;;5005688;28;20236;-60
2022/09/22 13:29:04;;;;;;;1.40;1.27;;;17.70;46.30;;;;;;5015610;28;20209;-59
2022/09/22 13:31:45;;;;;;;1.23;1.13;;;17.40;47.30;;;;;;5010827;28;20189;-59
2022/09/22 13:34:31;;;;;;;2.37;1.83;;;17.30;50.00;;;;;;4982550;28;20239;-59
2022/09/22 13:37:13;;;;;;;2.97;1.93;;;17.20;51.20;;;;;;4982486;28;20185;-59